<?xml version="1.0" encoding="UTF-8" standalone="no" ?>
<gpx xmlns="http://www.topografix.com/GPX/1/1" xmlns:xsi="http://www.w3.org/2001/XMLSchema-instance" xsi:schemaLocation="http://www.topografix.com/GPX/1/1 http://www.topografix.com/GPX/1/1/gpx.xsd" version="1.1" creator="VisuGPX - https://www.visugpx.com">
  <metadata>
    <name>Pointre - Vallée de La Brizotte - Bois de Flammerans</name>
    <desc><![CDATA[Randonnée pédestre effectuée le 5 juillet 2021]]></desc>
  </metadata>
  <trk>
    <name><![CDATA[5 juil. 2021 à 09:13:48]]></name>
    <extensions>
      <line xmlns="http://www.topografix.com/GPX/gpx_style/0/2">
        <color>0000FF</color>
        <width>4</width>
      </line>
    </extensions>
    <trkseg>
      <trkpt lat="47.2248" lon="5.50011">
        <ele>238</ele>
        <time>2021-07-05T07:13:49Z</time>
      </trkpt>
      <trkpt lat="47.22483" lon="5.50008">
        <ele>238</ele>
        <time>2021-07-05T07:14:15Z</time>
      </trkpt>
      <trkpt lat="47.22475" lon="5.49999">
        <ele>236</ele>
        <time>2021-07-05T07:14:31Z</time>
      </trkpt>
      <trkpt lat="47.22471" lon="5.49986">
        <ele>234</ele>
        <time>2021-07-05T07:14:42Z</time>
      </trkpt>
      <trkpt lat="47.22471" lon="5.49975">
        <ele>234</ele>
        <time>2021-07-05T07:14:49Z</time>
      </trkpt>
      <trkpt lat="47.22474" lon="5.49961">
        <ele>234</ele>
        <time>2021-07-05T07:14:58Z</time>
      </trkpt>
      <trkpt lat="47.22478" lon="5.4995">
        <ele>234</ele>
        <time>2021-07-05T07:15:03Z</time>
      </trkpt>
      <trkpt lat="47.22483" lon="5.49942">
        <ele>235</ele>
        <time>2021-07-05T07:15:08Z</time>
      </trkpt>
      <trkpt lat="47.22489" lon="5.49935">
        <ele>235</ele>
        <time>2021-07-05T07:15:15Z</time>
      </trkpt>
      <trkpt lat="47.22488" lon="5.49914">
        <ele>234</ele>
        <time>2021-07-05T07:15:39Z</time>
      </trkpt>
      <trkpt lat="47.22489" lon="5.49905">
        <ele>234</ele>
        <time>2021-07-05T07:15:43Z</time>
      </trkpt>
      <trkpt lat="47.22489" lon="5.49896">
        <ele>234</ele>
        <time>2021-07-05T07:15:48Z</time>
      </trkpt>
      <trkpt lat="47.22494" lon="5.49878">
        <ele>234</ele>
        <time>2021-07-05T07:15:57Z</time>
      </trkpt>
      <trkpt lat="47.22494" lon="5.4987">
        <ele>234</ele>
        <time>2021-07-05T07:16:02Z</time>
      </trkpt>
      <trkpt lat="47.22499" lon="5.49813">
        <ele>233</ele>
        <time>2021-07-05T07:16:33Z</time>
      </trkpt>
      <trkpt lat="47.22504" lon="5.49771">
        <ele>232</ele>
        <time>2021-07-05T07:16:56Z</time>
      </trkpt>
      <trkpt lat="47.22502" lon="5.49751">
        <ele>232</ele>
        <time>2021-07-05T07:17:07Z</time>
      </trkpt>
      <trkpt lat="47.2251" lon="5.49717">
        <ele>230</ele>
        <time>2021-07-05T07:17:27Z</time>
      </trkpt>
      <trkpt lat="47.22514" lon="5.49711">
        <ele>230</ele>
        <time>2021-07-05T07:17:32Z</time>
      </trkpt>
      <trkpt lat="47.22519" lon="5.49674">
        <ele>228</ele>
        <time>2021-07-05T07:17:52Z</time>
      </trkpt>
      <trkpt lat="47.22535" lon="5.49624">
        <ele>225</ele>
        <time>2021-07-05T07:18:23Z</time>
      </trkpt>
      <trkpt lat="47.22548" lon="5.49564">
        <ele>223</ele>
        <time>2021-07-05T07:18:56Z</time>
      </trkpt>
      <trkpt lat="47.22551" lon="5.49555">
        <ele>223</ele>
        <time>2021-07-05T07:19:01Z</time>
      </trkpt>
      <trkpt lat="47.22552" lon="5.49547">
        <ele>222</ele>
        <time>2021-07-05T07:19:06Z</time>
      </trkpt>
      <trkpt lat="47.22557" lon="5.49524">
        <ele>222</ele>
        <time>2021-07-05T07:19:18Z</time>
      </trkpt>
      <trkpt lat="47.22559" lon="5.49476">
        <ele>222</ele>
        <time>2021-07-05T07:19:45Z</time>
      </trkpt>
      <trkpt lat="47.22557" lon="5.49465">
        <ele>222</ele>
        <time>2021-07-05T07:19:52Z</time>
      </trkpt>
      <trkpt lat="47.22556" lon="5.49456">
        <ele>222</ele>
        <time>2021-07-05T07:19:58Z</time>
      </trkpt>
      <trkpt lat="47.22546" lon="5.49445">
        <ele>221</ele>
        <time>2021-07-05T07:20:11Z</time>
      </trkpt>
      <trkpt lat="47.22534" lon="5.49438">
        <ele>221</ele>
        <time>2021-07-05T07:20:20Z</time>
      </trkpt>
      <trkpt lat="47.22529" lon="5.4943">
        <ele>221</ele>
        <time>2021-07-05T07:20:24Z</time>
      </trkpt>
      <trkpt lat="47.22502" lon="5.49409">
        <ele>220</ele>
        <time>2021-07-05T07:20:44Z</time>
      </trkpt>
      <trkpt lat="47.22509" lon="5.49417">
        <ele>221</ele>
        <time>2021-07-05T07:21:14Z</time>
      </trkpt>
      <trkpt lat="47.22527" lon="5.49427">
        <ele>220</ele>
        <time>2021-07-05T07:21:27Z</time>
      </trkpt>
      <trkpt lat="47.22535" lon="5.49429">
        <ele>220</ele>
        <time>2021-07-05T07:21:34Z</time>
      </trkpt>
      <trkpt lat="47.22542" lon="5.49433">
        <ele>220</ele>
        <time>2021-07-05T07:21:41Z</time>
      </trkpt>
      <trkpt lat="47.22549" lon="5.49415">
        <ele>220</ele>
        <time>2021-07-05T07:21:56Z</time>
      </trkpt>
      <trkpt lat="47.22554" lon="5.49371">
        <ele>220</ele>
        <time>2021-07-05T07:22:16Z</time>
      </trkpt>
      <trkpt lat="47.22547" lon="5.49364">
        <ele>220</ele>
        <time>2021-07-05T07:22:21Z</time>
      </trkpt>
      <trkpt lat="47.2254" lon="5.49359">
        <ele>220</ele>
        <time>2021-07-05T07:22:26Z</time>
      </trkpt>
      <trkpt lat="47.22531" lon="5.49358">
        <ele>221</ele>
        <time>2021-07-05T07:22:33Z</time>
      </trkpt>
      <trkpt lat="47.22525" lon="5.49353">
        <ele>222</ele>
        <time>2021-07-05T07:22:40Z</time>
      </trkpt>
      <trkpt lat="47.22517" lon="5.49349">
        <ele>222</ele>
        <time>2021-07-05T07:22:47Z</time>
      </trkpt>
      <trkpt lat="47.22511" lon="5.49345">
        <ele>223</ele>
        <time>2021-07-05T07:22:54Z</time>
      </trkpt>
      <trkpt lat="47.22482" lon="5.4932">
        <ele>225</ele>
        <time>2021-07-05T07:23:26Z</time>
      </trkpt>
      <trkpt lat="47.22473" lon="5.49304">
        <ele>226</ele>
        <time>2021-07-05T07:23:36Z</time>
      </trkpt>
      <trkpt lat="47.22457" lon="5.49265">
        <ele>227</ele>
        <time>2021-07-05T07:24:02Z</time>
      </trkpt>
      <trkpt lat="47.22453" lon="5.4926">
        <ele>227</ele>
        <time>2021-07-05T07:24:06Z</time>
      </trkpt>
      <trkpt lat="47.22431" lon="5.49219">
        <ele>228</ele>
        <time>2021-07-05T07:24:36Z</time>
      </trkpt>
      <trkpt lat="47.22426" lon="5.49214">
        <ele>228</ele>
        <time>2021-07-05T07:24:40Z</time>
      </trkpt>
      <trkpt lat="47.2242" lon="5.49213">
        <ele>227</ele>
        <time>2021-07-05T07:24:46Z</time>
      </trkpt>
      <trkpt lat="47.22401" lon="5.49229">
        <ele>226</ele>
        <time>2021-07-05T07:25:05Z</time>
      </trkpt>
      <trkpt lat="47.2239" lon="5.49233">
        <ele>225</ele>
        <time>2021-07-05T07:25:14Z</time>
      </trkpt>
      <trkpt lat="47.22386" lon="5.49236">
        <ele>225</ele>
        <time>2021-07-05T07:25:17Z</time>
      </trkpt>
      <trkpt lat="47.22381" lon="5.49236">
        <ele>224</ele>
        <time>2021-07-05T07:25:20Z</time>
      </trkpt>
      <trkpt lat="47.22376" lon="5.49231">
        <ele>224</ele>
        <time>2021-07-05T07:25:25Z</time>
      </trkpt>
      <trkpt lat="47.22358" lon="5.49209">
        <ele>224</ele>
        <time>2021-07-05T07:25:46Z</time>
      </trkpt>
      <trkpt lat="47.22351" lon="5.49195">
        <ele>225</ele>
        <time>2021-07-05T07:25:56Z</time>
      </trkpt>
      <trkpt lat="47.22329" lon="5.49149">
        <ele>224</ele>
        <time>2021-07-05T07:26:27Z</time>
      </trkpt>
      <trkpt lat="47.22314" lon="5.49121">
        <ele>224</ele>
        <time>2021-07-05T07:26:45Z</time>
      </trkpt>
      <trkpt lat="47.22311" lon="5.49114">
        <ele>225</ele>
        <time>2021-07-05T07:26:49Z</time>
      </trkpt>
      <trkpt lat="47.22298" lon="5.4909">
        <ele>224</ele>
        <time>2021-07-05T07:27:08Z</time>
      </trkpt>
      <trkpt lat="47.22294" lon="5.4908">
        <ele>225</ele>
        <time>2021-07-05T07:27:16Z</time>
      </trkpt>
      <trkpt lat="47.2229" lon="5.49073">
        <ele>225</ele>
        <time>2021-07-05T07:27:20Z</time>
      </trkpt>
      <trkpt lat="47.22288" lon="5.49066">
        <ele>225</ele>
        <time>2021-07-05T07:27:25Z</time>
      </trkpt>
      <trkpt lat="47.22272" lon="5.49036">
        <ele>225</ele>
        <time>2021-07-05T07:27:44Z</time>
      </trkpt>
      <trkpt lat="47.22257" lon="5.49021">
        <ele>224</ele>
        <time>2021-07-05T07:27:57Z</time>
      </trkpt>
      <trkpt lat="47.22218" lon="5.48969">
        <ele>224</ele>
        <time>2021-07-05T07:28:39Z</time>
      </trkpt>
      <trkpt lat="47.22201" lon="5.48942">
        <ele>224</ele>
        <time>2021-07-05T07:29:01Z</time>
      </trkpt>
      <trkpt lat="47.22197" lon="5.48933">
        <ele>224</ele>
        <time>2021-07-05T07:29:06Z</time>
      </trkpt>
      <trkpt lat="47.22176" lon="5.48899">
        <ele>224</ele>
        <time>2021-07-05T07:29:26Z</time>
      </trkpt>
      <trkpt lat="47.22157" lon="5.48857">
        <ele>225</ele>
        <time>2021-07-05T07:29:54Z</time>
      </trkpt>
      <trkpt lat="47.22152" lon="5.48851">
        <ele>225</ele>
        <time>2021-07-05T07:29:59Z</time>
      </trkpt>
      <trkpt lat="47.2213" lon="5.488">
        <ele>224</ele>
        <time>2021-07-05T07:30:33Z</time>
      </trkpt>
      <trkpt lat="47.22108" lon="5.4875">
        <ele>222</ele>
        <time>2021-07-05T07:31:07Z</time>
      </trkpt>
      <trkpt lat="47.22104" lon="5.48743">
        <ele>222</ele>
        <time>2021-07-05T07:31:12Z</time>
      </trkpt>
      <trkpt lat="47.22096" lon="5.4873">
        <ele>222</ele>
        <time>2021-07-05T07:31:22Z</time>
      </trkpt>
      <trkpt lat="47.22088" lon="5.48709">
        <ele>221</ele>
        <time>2021-07-05T07:31:34Z</time>
      </trkpt>
      <trkpt lat="47.22086" lon="5.487">
        <ele>221</ele>
        <time>2021-07-05T07:31:38Z</time>
      </trkpt>
      <trkpt lat="47.22073" lon="5.48672">
        <ele>221</ele>
        <time>2021-07-05T07:31:57Z</time>
      </trkpt>
      <trkpt lat="47.22071" lon="5.48664">
        <ele>220</ele>
        <time>2021-07-05T07:32:02Z</time>
      </trkpt>
      <trkpt lat="47.22047" lon="5.48612">
        <ele>220</ele>
        <time>2021-07-05T07:32:34Z</time>
      </trkpt>
      <trkpt lat="47.2204" lon="5.48596">
        <ele>220</ele>
        <time>2021-07-05T07:32:45Z</time>
      </trkpt>
      <trkpt lat="47.22032" lon="5.48573">
        <ele>219</ele>
        <time>2021-07-05T07:32:59Z</time>
      </trkpt>
      <trkpt lat="47.22021" lon="5.48555">
        <ele>219</ele>
        <time>2021-07-05T07:33:13Z</time>
      </trkpt>
      <trkpt lat="47.22012" lon="5.48531">
        <ele>218</ele>
        <time>2021-07-05T07:33:31Z</time>
      </trkpt>
      <trkpt lat="47.22002" lon="5.48509">
        <ele>218</ele>
        <time>2021-07-05T07:33:47Z</time>
      </trkpt>
      <trkpt lat="47.22001" lon="5.48497">
        <ele>218</ele>
        <time>2021-07-05T07:33:53Z</time>
      </trkpt>
      <trkpt lat="47.21998" lon="5.48487">
        <ele>218</ele>
        <time>2021-07-05T07:34:00Z</time>
      </trkpt>
      <trkpt lat="47.21996" lon="5.48478">
        <ele>218</ele>
        <time>2021-07-05T07:34:05Z</time>
      </trkpt>
      <trkpt lat="47.21997" lon="5.48467">
        <ele>218</ele>
        <time>2021-07-05T07:34:11Z</time>
      </trkpt>
      <trkpt lat="47.21988" lon="5.48404">
        <ele>218</ele>
        <time>2021-07-05T07:34:46Z</time>
      </trkpt>
      <trkpt lat="47.21986" lon="5.48392">
        <ele>218</ele>
        <time>2021-07-05T07:34:52Z</time>
      </trkpt>
      <trkpt lat="47.21986" lon="5.48384">
        <ele>218</ele>
        <time>2021-07-05T07:34:56Z</time>
      </trkpt>
      <trkpt lat="47.21985" lon="5.48376">
        <ele>218</ele>
        <time>2021-07-05T07:35:00Z</time>
      </trkpt>
      <trkpt lat="47.21983" lon="5.48353">
        <ele>218</ele>
        <time>2021-07-05T07:35:13Z</time>
      </trkpt>
      <trkpt lat="47.21985" lon="5.48315">
        <ele>218</ele>
        <time>2021-07-05T07:35:32Z</time>
      </trkpt>
      <trkpt lat="47.21983" lon="5.48307">
        <ele>218</ele>
        <time>2021-07-05T07:35:36Z</time>
      </trkpt>
      <trkpt lat="47.21982" lon="5.4829">
        <ele>219</ele>
        <time>2021-07-05T07:35:45Z</time>
      </trkpt>
      <trkpt lat="47.2198" lon="5.48282">
        <ele>219</ele>
        <time>2021-07-05T07:35:49Z</time>
      </trkpt>
      <trkpt lat="47.21977" lon="5.48224">
        <ele>219</ele>
        <time>2021-07-05T07:36:42Z</time>
      </trkpt>
      <trkpt lat="47.21974" lon="5.48207">
        <ele>218</ele>
        <time>2021-07-05T07:36:54Z</time>
      </trkpt>
      <trkpt lat="47.21975" lon="5.482">
        <ele>218</ele>
        <time>2021-07-05T07:36:59Z</time>
      </trkpt>
      <trkpt lat="47.21973" lon="5.48191">
        <ele>218</ele>
        <time>2021-07-05T07:37:04Z</time>
      </trkpt>
      <trkpt lat="47.21967" lon="5.48176">
        <ele>218</ele>
        <time>2021-07-05T07:37:16Z</time>
      </trkpt>
      <trkpt lat="47.2196" lon="5.48176">
        <ele>219</ele>
        <time>2021-07-05T07:37:27Z</time>
      </trkpt>
      <trkpt lat="47.21943" lon="5.48175">
        <ele>218</ele>
        <time>2021-07-05T07:37:45Z</time>
      </trkpt>
      <trkpt lat="47.21937" lon="5.48172">
        <ele>217</ele>
        <time>2021-07-05T07:37:51Z</time>
      </trkpt>
      <trkpt lat="47.21931" lon="5.4817">
        <ele>217</ele>
        <time>2021-07-05T07:37:57Z</time>
      </trkpt>
      <trkpt lat="47.21926" lon="5.48164">
        <ele>216</ele>
        <time>2021-07-05T07:38:06Z</time>
      </trkpt>
      <trkpt lat="47.21923" lon="5.48154">
        <ele>216</ele>
        <time>2021-07-05T07:38:14Z</time>
      </trkpt>
      <trkpt lat="47.21908" lon="5.48142">
        <ele>215</ele>
        <time>2021-07-05T07:38:35Z</time>
      </trkpt>
      <trkpt lat="47.21902" lon="5.48144">
        <ele>215</ele>
        <time>2021-07-05T07:38:46Z</time>
      </trkpt>
      <trkpt lat="47.21894" lon="5.48151">
        <ele>214</ele>
        <time>2021-07-05T07:39:05Z</time>
      </trkpt>
      <trkpt lat="47.21891" lon="5.48159">
        <ele>214</ele>
        <time>2021-07-05T07:39:17Z</time>
      </trkpt>
      <trkpt lat="47.21883" lon="5.48176">
        <ele>215</ele>
        <time>2021-07-05T07:39:42Z</time>
      </trkpt>
      <trkpt lat="47.21881" lon="5.48183">
        <ele>215</ele>
        <time>2021-07-05T07:39:54Z</time>
      </trkpt>
      <trkpt lat="47.21874" lon="5.48186">
        <ele>214</ele>
        <time>2021-07-05T07:40:00Z</time>
      </trkpt>
      <trkpt lat="47.21869" lon="5.48185">
        <ele>214</ele>
        <time>2021-07-05T07:40:06Z</time>
      </trkpt>
      <trkpt lat="47.21859" lon="5.48181">
        <ele>213</ele>
        <time>2021-07-05T07:40:26Z</time>
      </trkpt>
      <trkpt lat="47.21852" lon="5.48179">
        <ele>213</ele>
        <time>2021-07-05T07:40:40Z</time>
      </trkpt>
      <trkpt lat="47.21849" lon="5.48173">
        <ele>212</ele>
        <time>2021-07-05T07:40:52Z</time>
      </trkpt>
      <trkpt lat="47.21849" lon="5.48163">
        <ele>212</ele>
        <time>2021-07-05T07:40:59Z</time>
      </trkpt>
      <trkpt lat="47.21847" lon="5.48138">
        <ele>211</ele>
        <time>2021-07-05T07:41:20Z</time>
      </trkpt>
      <trkpt lat="47.21846" lon="5.48107">
        <ele>210</ele>
        <time>2021-07-05T07:41:51Z</time>
      </trkpt>
      <trkpt lat="47.21848" lon="5.48099">
        <ele>209</ele>
        <time>2021-07-05T07:41:56Z</time>
      </trkpt>
      <trkpt lat="47.21848" lon="5.48091">
        <ele>209</ele>
        <time>2021-07-05T07:42:11Z</time>
      </trkpt>
      <trkpt lat="47.2185" lon="5.48084">
        <ele>208</ele>
        <time>2021-07-05T07:42:46Z</time>
      </trkpt>
      <trkpt lat="47.21844" lon="5.48075">
        <ele>207</ele>
        <time>2021-07-05T07:43:16Z</time>
      </trkpt>
      <trkpt lat="47.2184" lon="5.48062">
        <ele>206</ele>
        <time>2021-07-05T07:45:45Z</time>
      </trkpt>
      <trkpt lat="47.21833" lon="5.48064">
        <ele>206</ele>
        <time>2021-07-05T07:45:57Z</time>
      </trkpt>
      <trkpt lat="47.21818" lon="5.48058">
        <ele>204</ele>
        <time>2021-07-05T07:46:45Z</time>
      </trkpt>
      <trkpt lat="47.2181" lon="5.48054">
        <ele>204</ele>
        <time>2021-07-05T07:46:52Z</time>
      </trkpt>
      <trkpt lat="47.21806" lon="5.48049">
        <ele>204</ele>
        <time>2021-07-05T07:47:00Z</time>
      </trkpt>
      <trkpt lat="47.21789" lon="5.48051">
        <ele>203</ele>
        <time>2021-07-05T07:47:25Z</time>
      </trkpt>
      <trkpt lat="47.21782" lon="5.48052">
        <ele>202</ele>
        <time>2021-07-05T07:47:49Z</time>
      </trkpt>
      <trkpt lat="47.21768" lon="5.48042">
        <ele>201</ele>
        <time>2021-07-05T07:48:21Z</time>
      </trkpt>
      <trkpt lat="47.21761" lon="5.48036">
        <ele>201</ele>
        <time>2021-07-05T07:48:30Z</time>
      </trkpt>
      <trkpt lat="47.21754" lon="5.48032">
        <ele>201</ele>
        <time>2021-07-05T07:48:37Z</time>
      </trkpt>
      <trkpt lat="47.21749" lon="5.48015">
        <ele>201</ele>
        <time>2021-07-05T07:48:52Z</time>
      </trkpt>
      <trkpt lat="47.21744" lon="5.48006">
        <ele>201</ele>
        <time>2021-07-05T07:48:57Z</time>
      </trkpt>
      <trkpt lat="47.21741" lon="5.47995">
        <ele>201</ele>
        <time>2021-07-05T07:49:02Z</time>
      </trkpt>
      <trkpt lat="47.21732" lon="5.4797">
        <ele>200</ele>
        <time>2021-07-05T07:49:24Z</time>
      </trkpt>
      <trkpt lat="47.21731" lon="5.47939">
        <ele>200</ele>
        <time>2021-07-05T07:49:46Z</time>
      </trkpt>
      <trkpt lat="47.21732" lon="5.47929">
        <ele>200</ele>
        <time>2021-07-05T07:49:53Z</time>
      </trkpt>
      <trkpt lat="47.2173" lon="5.47919">
        <ele>200</ele>
        <time>2021-07-05T07:50:02Z</time>
      </trkpt>
      <trkpt lat="47.21732" lon="5.47907">
        <ele>201</ele>
        <time>2021-07-05T07:50:09Z</time>
      </trkpt>
      <trkpt lat="47.21732" lon="5.47898">
        <ele>202</ele>
        <time>2021-07-05T07:50:16Z</time>
      </trkpt>
      <trkpt lat="47.21729" lon="5.47883">
        <ele>200</ele>
        <time>2021-07-05T07:50:43Z</time>
      </trkpt>
      <trkpt lat="47.21729" lon="5.47871">
        <ele>200</ele>
        <time>2021-07-05T07:50:51Z</time>
      </trkpt>
      <trkpt lat="47.21726" lon="5.4786">
        <ele>200</ele>
        <time>2021-07-05T07:51:06Z</time>
      </trkpt>
      <trkpt lat="47.21723" lon="5.4785">
        <ele>200</ele>
        <time>2021-07-05T07:51:16Z</time>
      </trkpt>
      <trkpt lat="47.21719" lon="5.47838">
        <ele>199</ele>
        <time>2021-07-05T07:51:23Z</time>
      </trkpt>
      <trkpt lat="47.21716" lon="5.47823">
        <ele>198</ele>
        <time>2021-07-05T07:51:37Z</time>
      </trkpt>
      <trkpt lat="47.21706" lon="5.47788">
        <ele>197</ele>
        <time>2021-07-05T07:52:04Z</time>
      </trkpt>
      <trkpt lat="47.21705" lon="5.47777">
        <ele>197</ele>
        <time>2021-07-05T07:52:12Z</time>
      </trkpt>
      <trkpt lat="47.2171" lon="5.47765">
        <ele>198</ele>
        <time>2021-07-05T07:52:21Z</time>
      </trkpt>
      <trkpt lat="47.21707" lon="5.47749">
        <ele>197</ele>
        <time>2021-07-05T07:52:36Z</time>
      </trkpt>
      <trkpt lat="47.21704" lon="5.4774">
        <ele>197</ele>
        <time>2021-07-05T07:52:43Z</time>
      </trkpt>
      <trkpt lat="47.21708" lon="5.47727">
        <ele>197</ele>
        <time>2021-07-05T07:52:58Z</time>
      </trkpt>
      <trkpt lat="47.21705" lon="5.47675">
        <ele>197</ele>
        <time>2021-07-05T07:53:31Z</time>
      </trkpt>
      <trkpt lat="47.2171" lon="5.47656">
        <ele>198</ele>
        <time>2021-07-05T07:53:46Z</time>
      </trkpt>
      <trkpt lat="47.21711" lon="5.47645">
        <ele>198</ele>
        <time>2021-07-05T07:53:54Z</time>
      </trkpt>
      <trkpt lat="47.21707" lon="5.47595">
        <ele>198</ele>
        <time>2021-07-05T07:54:38Z</time>
      </trkpt>
      <trkpt lat="47.2171" lon="5.47578">
        <ele>198</ele>
        <time>2021-07-05T07:55:03Z</time>
      </trkpt>
      <trkpt lat="47.21706" lon="5.47552">
        <ele>197</ele>
        <time>2021-07-05T07:55:30Z</time>
      </trkpt>
      <trkpt lat="47.2171" lon="5.47541">
        <ele>197</ele>
        <time>2021-07-05T07:55:54Z</time>
      </trkpt>
      <trkpt lat="47.21706" lon="5.47527">
        <ele>197</ele>
        <time>2021-07-05T07:56:12Z</time>
      </trkpt>
      <trkpt lat="47.21701" lon="5.47477">
        <ele>197</ele>
        <time>2021-07-05T07:56:48Z</time>
      </trkpt>
      <trkpt lat="47.21692" lon="5.47459">
        <ele>196</ele>
        <time>2021-07-05T07:56:59Z</time>
      </trkpt>
      <trkpt lat="47.21695" lon="5.47432">
        <ele>196</ele>
        <time>2021-07-05T07:57:15Z</time>
      </trkpt>
      <trkpt lat="47.217" lon="5.47413">
        <ele>196</ele>
        <time>2021-07-05T07:57:36Z</time>
      </trkpt>
      <trkpt lat="47.21701" lon="5.47397">
        <ele>196</ele>
        <time>2021-07-05T07:57:54Z</time>
      </trkpt>
      <trkpt lat="47.217" lon="5.47366">
        <ele>196</ele>
        <time>2021-07-05T07:58:30Z</time>
      </trkpt>
      <trkpt lat="47.21707" lon="5.47356">
        <ele>196</ele>
        <time>2021-07-05T07:58:43Z</time>
      </trkpt>
      <trkpt lat="47.21717" lon="5.47325">
        <ele>196</ele>
        <time>2021-07-05T07:59:18Z</time>
      </trkpt>
      <trkpt lat="47.21721" lon="5.47315">
        <ele>196</ele>
        <time>2021-07-05T07:59:24Z</time>
      </trkpt>
      <trkpt lat="47.21721" lon="5.47305">
        <ele>196</ele>
        <time>2021-07-05T07:59:31Z</time>
      </trkpt>
      <trkpt lat="47.21731" lon="5.4726">
        <ele>197</ele>
        <time>2021-07-05T08:00:12Z</time>
      </trkpt>
      <trkpt lat="47.21733" lon="5.47236">
        <ele>196</ele>
        <time>2021-07-05T08:00:39Z</time>
      </trkpt>
      <trkpt lat="47.21732" lon="5.47238">
        <ele>196</ele>
        <time>2021-07-05T08:01:56Z</time>
      </trkpt>
      <trkpt lat="47.21726" lon="5.47229">
        <ele>196</ele>
        <time>2021-07-05T08:02:38Z</time>
      </trkpt>
      <trkpt lat="47.21729" lon="5.47236">
        <ele>196</ele>
        <time>2021-07-05T08:03:25Z</time>
      </trkpt>
      <trkpt lat="47.21735" lon="5.47236">
        <ele>196</ele>
        <time>2021-07-05T08:04:11Z</time>
      </trkpt>
      <trkpt lat="47.21743" lon="5.47232">
        <ele>196</ele>
        <time>2021-07-05T08:05:18Z</time>
      </trkpt>
      <trkpt lat="47.21772" lon="5.47218">
        <ele>197</ele>
        <time>2021-07-05T08:06:02Z</time>
      </trkpt>
      <trkpt lat="47.21783" lon="5.47209">
        <ele>198</ele>
        <time>2021-07-05T08:06:15Z</time>
      </trkpt>
      <trkpt lat="47.21795" lon="5.47206">
        <ele>198</ele>
        <time>2021-07-05T08:06:33Z</time>
      </trkpt>
      <trkpt lat="47.21802" lon="5.47207">
        <ele>198</ele>
        <time>2021-07-05T08:06:42Z</time>
      </trkpt>
      <trkpt lat="47.21837" lon="5.47197">
        <ele>199</ele>
        <time>2021-07-05T08:07:14Z</time>
      </trkpt>
      <trkpt lat="47.21861" lon="5.47186">
        <ele>200</ele>
        <time>2021-07-05T08:07:30Z</time>
      </trkpt>
      <trkpt lat="47.21867" lon="5.47185">
        <ele>201</ele>
        <time>2021-07-05T08:07:38Z</time>
      </trkpt>
      <trkpt lat="47.21889" lon="5.47174">
        <ele>203</ele>
        <time>2021-07-05T08:08:06Z</time>
      </trkpt>
      <trkpt lat="47.21897" lon="5.47173">
        <ele>204</ele>
        <time>2021-07-05T08:08:12Z</time>
      </trkpt>
      <trkpt lat="47.21935" lon="5.47152">
        <ele>205</ele>
        <time>2021-07-05T08:08:42Z</time>
      </trkpt>
      <trkpt lat="47.2198" lon="5.47141">
        <ele>207</ele>
        <time>2021-07-05T08:09:20Z</time>
      </trkpt>
      <trkpt lat="47.22014" lon="5.47126">
        <ele>209</ele>
        <time>2021-07-05T08:09:50Z</time>
      </trkpt>
      <trkpt lat="47.22028" lon="5.47122">
        <ele>208</ele>
        <time>2021-07-05T08:11:27Z</time>
      </trkpt>
      <trkpt lat="47.22036" lon="5.47118">
        <ele>208</ele>
        <time>2021-07-05T08:11:37Z</time>
      </trkpt>
      <trkpt lat="47.22048" lon="5.47118">
        <ele>209</ele>
        <time>2021-07-05T08:11:46Z</time>
      </trkpt>
      <trkpt lat="47.22056" lon="5.47117">
        <ele>209</ele>
        <time>2021-07-05T08:11:52Z</time>
      </trkpt>
      <trkpt lat="47.22067" lon="5.47107">
        <ele>208</ele>
        <time>2021-07-05T08:12:01Z</time>
      </trkpt>
      <trkpt lat="47.22113" lon="5.47096">
        <ele>208</ele>
        <time>2021-07-05T08:12:36Z</time>
      </trkpt>
      <trkpt lat="47.22154" lon="5.47084">
        <ele>208</ele>
        <time>2021-07-05T08:13:08Z</time>
      </trkpt>
      <trkpt lat="47.22176" lon="5.47072">
        <ele>208</ele>
        <time>2021-07-05T08:13:23Z</time>
      </trkpt>
      <trkpt lat="47.22188" lon="5.47074">
        <ele>209</ele>
        <time>2021-07-05T08:13:33Z</time>
      </trkpt>
      <trkpt lat="47.22205" lon="5.47066">
        <ele>208</ele>
        <time>2021-07-05T08:13:47Z</time>
      </trkpt>
      <trkpt lat="47.22217" lon="5.47062">
        <ele>209</ele>
        <time>2021-07-05T08:13:56Z</time>
      </trkpt>
      <trkpt lat="47.22222" lon="5.47058">
        <ele>209</ele>
        <time>2021-07-05T08:14:02Z</time>
      </trkpt>
      <trkpt lat="47.22258" lon="5.47042">
        <ele>209</ele>
        <time>2021-07-05T08:14:33Z</time>
      </trkpt>
      <trkpt lat="47.2227" lon="5.47042">
        <ele>208</ele>
        <time>2021-07-05T08:14:43Z</time>
      </trkpt>
      <trkpt lat="47.22312" lon="5.47028">
        <ele>208</ele>
        <time>2021-07-05T08:15:15Z</time>
      </trkpt>
      <trkpt lat="47.22354" lon="5.47013">
        <ele>208</ele>
        <time>2021-07-05T08:15:47Z</time>
      </trkpt>
      <trkpt lat="47.2237" lon="5.47008">
        <ele>209</ele>
        <time>2021-07-05T08:16:00Z</time>
      </trkpt>
      <trkpt lat="47.22377" lon="5.47007">
        <ele>209</ele>
        <time>2021-07-05T08:16:04Z</time>
      </trkpt>
      <trkpt lat="47.22418" lon="5.4699">
        <ele>208</ele>
        <time>2021-07-05T08:16:38Z</time>
      </trkpt>
      <trkpt lat="47.22424" lon="5.46987">
        <ele>208</ele>
        <time>2021-07-05T08:16:42Z</time>
      </trkpt>
      <trkpt lat="47.22428" lon="5.46982">
        <ele>208</ele>
        <time>2021-07-05T08:16:46Z</time>
      </trkpt>
      <trkpt lat="47.22431" lon="5.46973">
        <ele>209</ele>
        <time>2021-07-05T08:16:51Z</time>
      </trkpt>
      <trkpt lat="47.22436" lon="5.46966">
        <ele>209</ele>
        <time>2021-07-05T08:16:56Z</time>
      </trkpt>
      <trkpt lat="47.22436" lon="5.46958">
        <ele>208</ele>
        <time>2021-07-05T08:17:02Z</time>
      </trkpt>
      <trkpt lat="47.22434" lon="5.46953">
        <ele>208</ele>
        <time>2021-07-05T08:17:06Z</time>
      </trkpt>
      <trkpt lat="47.22429" lon="5.46946">
        <ele>208</ele>
        <time>2021-07-05T08:17:15Z</time>
      </trkpt>
      <trkpt lat="47.2241" lon="5.46924">
        <ele>208</ele>
        <time>2021-07-05T08:17:34Z</time>
      </trkpt>
      <trkpt lat="47.22402" lon="5.46911">
        <ele>208</ele>
        <time>2021-07-05T08:17:44Z</time>
      </trkpt>
      <trkpt lat="47.22392" lon="5.46899">
        <ele>208</ele>
        <time>2021-07-05T08:17:54Z</time>
      </trkpt>
      <trkpt lat="47.22388" lon="5.46891">
        <ele>208</ele>
        <time>2021-07-05T08:17:59Z</time>
      </trkpt>
      <trkpt lat="47.22369" lon="5.4687">
        <ele>209</ele>
        <time>2021-07-05T08:18:19Z</time>
      </trkpt>
      <trkpt lat="47.22359" lon="5.46861">
        <ele>209</ele>
        <time>2021-07-05T08:18:28Z</time>
      </trkpt>
      <trkpt lat="47.22331" lon="5.46815">
        <ele>208</ele>
        <time>2021-07-05T08:18:59Z</time>
      </trkpt>
      <trkpt lat="47.22301" lon="5.46769">
        <ele>208</ele>
        <time>2021-07-05T08:19:32Z</time>
      </trkpt>
      <trkpt lat="47.22291" lon="5.46759">
        <ele>208</ele>
        <time>2021-07-05T08:19:40Z</time>
      </trkpt>
      <trkpt lat="47.22263" lon="5.46712">
        <ele>208</ele>
        <time>2021-07-05T08:20:09Z</time>
      </trkpt>
      <trkpt lat="47.2225" lon="5.46699">
        <ele>208</ele>
        <time>2021-07-05T08:20:21Z</time>
      </trkpt>
      <trkpt lat="47.22221" lon="5.46651">
        <ele>208</ele>
        <time>2021-07-05T08:20:53Z</time>
      </trkpt>
      <trkpt lat="47.2221" lon="5.46642">
        <ele>208</ele>
        <time>2021-07-05T08:21:03Z</time>
      </trkpt>
      <trkpt lat="47.22194" lon="5.46617">
        <ele>208</ele>
        <time>2021-07-05T08:21:21Z</time>
      </trkpt>
      <trkpt lat="47.22183" lon="5.46607">
        <ele>208</ele>
        <time>2021-07-05T08:21:30Z</time>
      </trkpt>
      <trkpt lat="47.22174" lon="5.46595">
        <ele>209</ele>
        <time>2021-07-05T08:21:37Z</time>
      </trkpt>
      <trkpt lat="47.22164" lon="5.46584">
        <ele>209</ele>
        <time>2021-07-05T08:21:48Z</time>
      </trkpt>
      <trkpt lat="47.22132" lon="5.4653">
        <ele>209</ele>
        <time>2021-07-05T08:22:20Z</time>
      </trkpt>
      <trkpt lat="47.22119" lon="5.46514">
        <ele>209</ele>
        <time>2021-07-05T08:22:33Z</time>
      </trkpt>
      <trkpt lat="47.22108" lon="5.46504">
        <ele>209</ele>
        <time>2021-07-05T08:22:42Z</time>
      </trkpt>
      <trkpt lat="47.22104" lon="5.46498">
        <ele>209</ele>
        <time>2021-07-05T08:22:47Z</time>
      </trkpt>
      <trkpt lat="47.22098" lon="5.46481">
        <ele>209</ele>
        <time>2021-07-05T08:22:55Z</time>
      </trkpt>
      <trkpt lat="47.22093" lon="5.46476">
        <ele>209</ele>
        <time>2021-07-05T08:22:59Z</time>
      </trkpt>
      <trkpt lat="47.22086" lon="5.46463">
        <ele>209</ele>
        <time>2021-07-05T08:23:07Z</time>
      </trkpt>
      <trkpt lat="47.22054" lon="5.46423">
        <ele>210</ele>
        <time>2021-07-05T08:23:38Z</time>
      </trkpt>
      <trkpt lat="47.22045" lon="5.46411">
        <ele>209</ele>
        <time>2021-07-05T08:23:47Z</time>
      </trkpt>
      <trkpt lat="47.22022" lon="5.46384">
        <ele>209</ele>
        <time>2021-07-05T08:24:11Z</time>
      </trkpt>
      <trkpt lat="47.21998" lon="5.46345">
        <ele>210</ele>
        <time>2021-07-05T08:24:38Z</time>
      </trkpt>
      <trkpt lat="47.21967" lon="5.46304">
        <ele>209</ele>
        <time>2021-07-05T08:25:08Z</time>
      </trkpt>
      <trkpt lat="47.21954" lon="5.46283">
        <ele>210</ele>
        <time>2021-07-05T08:25:22Z</time>
      </trkpt>
      <trkpt lat="47.21942" lon="5.46267">
        <ele>210</ele>
        <time>2021-07-05T08:25:36Z</time>
      </trkpt>
      <trkpt lat="47.21934" lon="5.46252">
        <ele>210</ele>
        <time>2021-07-05T08:25:46Z</time>
      </trkpt>
      <trkpt lat="47.21922" lon="5.46242">
        <ele>210</ele>
        <time>2021-07-05T08:25:56Z</time>
      </trkpt>
      <trkpt lat="47.21919" lon="5.46236">
        <ele>210</ele>
        <time>2021-07-05T08:25:59Z</time>
      </trkpt>
      <trkpt lat="47.21898" lon="5.46218">
        <ele>210</ele>
        <time>2021-07-05T08:26:16Z</time>
      </trkpt>
      <trkpt lat="47.21888" lon="5.46194">
        <ele>210</ele>
        <time>2021-07-05T08:26:27Z</time>
      </trkpt>
      <trkpt lat="47.21856" lon="5.46154">
        <ele>210</ele>
        <time>2021-07-05T08:26:57Z</time>
      </trkpt>
      <trkpt lat="47.21846" lon="5.46136">
        <ele>210</ele>
        <time>2021-07-05T08:27:09Z</time>
      </trkpt>
      <trkpt lat="47.21832" lon="5.46122">
        <ele>210</ele>
        <time>2021-07-05T08:27:20Z</time>
      </trkpt>
      <trkpt lat="47.21827" lon="5.46113">
        <ele>210</ele>
        <time>2021-07-05T08:27:26Z</time>
      </trkpt>
      <trkpt lat="47.21812" lon="5.46095">
        <ele>209</ele>
        <time>2021-07-05T08:27:42Z</time>
      </trkpt>
      <trkpt lat="47.21798" lon="5.46071">
        <ele>209</ele>
        <time>2021-07-05T08:27:59Z</time>
      </trkpt>
      <trkpt lat="47.21773" lon="5.4604">
        <ele>209</ele>
        <time>2021-07-05T08:28:22Z</time>
      </trkpt>
      <trkpt lat="47.21766" lon="5.46032">
        <ele>210</ele>
        <time>2021-07-05T08:28:28Z</time>
      </trkpt>
      <trkpt lat="47.21761" lon="5.46023">
        <ele>209</ele>
        <time>2021-07-05T08:28:38Z</time>
      </trkpt>
      <trkpt lat="47.21755" lon="5.4602">
        <ele>209</ele>
        <time>2021-07-05T08:28:47Z</time>
      </trkpt>
      <trkpt lat="47.21747" lon="5.46026">
        <ele>208</ele>
        <time>2021-07-05T08:28:59Z</time>
      </trkpt>
      <trkpt lat="47.21733" lon="5.46036">
        <ele>208</ele>
        <time>2021-07-05T08:29:12Z</time>
      </trkpt>
      <trkpt lat="47.21704" lon="5.46048">
        <ele>208</ele>
        <time>2021-07-05T08:29:37Z</time>
      </trkpt>
      <trkpt lat="47.21697" lon="5.46045">
        <ele>208</ele>
        <time>2021-07-05T08:29:45Z</time>
      </trkpt>
      <trkpt lat="47.21681" lon="5.46034">
        <ele>208</ele>
        <time>2021-07-05T08:30:01Z</time>
      </trkpt>
      <trkpt lat="47.21672" lon="5.46033">
        <ele>208</ele>
        <time>2021-07-05T08:30:08Z</time>
      </trkpt>
      <trkpt lat="47.21644" lon="5.46012">
        <ele>208</ele>
        <time>2021-07-05T08:30:29Z</time>
      </trkpt>
      <trkpt lat="47.21631" lon="5.46006">
        <ele>208</ele>
        <time>2021-07-05T08:30:40Z</time>
      </trkpt>
      <trkpt lat="47.21593" lon="5.45979">
        <ele>208</ele>
        <time>2021-07-05T08:31:12Z</time>
      </trkpt>
      <trkpt lat="47.21578" lon="5.45973">
        <ele>207</ele>
        <time>2021-07-05T08:31:22Z</time>
      </trkpt>
      <trkpt lat="47.21543" lon="5.45948">
        <ele>207</ele>
        <time>2021-07-05T08:31:48Z</time>
      </trkpt>
      <trkpt lat="47.21537" lon="5.45948">
        <ele>207</ele>
        <time>2021-07-05T08:31:54Z</time>
      </trkpt>
      <trkpt lat="47.21527" lon="5.4594">
        <ele>207</ele>
        <time>2021-07-05T08:32:05Z</time>
      </trkpt>
      <trkpt lat="47.21519" lon="5.45938">
        <ele>206</ele>
        <time>2021-07-05T08:32:13Z</time>
      </trkpt>
      <trkpt lat="47.21496" lon="5.45924">
        <ele>206</ele>
        <time>2021-07-05T08:32:33Z</time>
      </trkpt>
      <trkpt lat="47.21478" lon="5.45915">
        <ele>205</ele>
        <time>2021-07-05T08:32:47Z</time>
      </trkpt>
      <trkpt lat="47.21469" lon="5.45908">
        <ele>205</ele>
        <time>2021-07-05T08:32:56Z</time>
      </trkpt>
      <trkpt lat="47.21461" lon="5.45904">
        <ele>205</ele>
        <time>2021-07-05T08:33:02Z</time>
      </trkpt>
      <trkpt lat="47.21436" lon="5.45887">
        <ele>205</ele>
        <time>2021-07-05T08:33:23Z</time>
      </trkpt>
      <trkpt lat="47.21426" lon="5.45882">
        <ele>205</ele>
        <time>2021-07-05T08:33:31Z</time>
      </trkpt>
      <trkpt lat="47.21401" lon="5.45863">
        <ele>204</ele>
        <time>2021-07-05T08:33:51Z</time>
      </trkpt>
      <trkpt lat="47.21395" lon="5.45862">
        <ele>204</ele>
        <time>2021-07-05T08:33:56Z</time>
      </trkpt>
      <trkpt lat="47.21381" lon="5.45851">
        <ele>203</ele>
        <time>2021-07-05T08:34:08Z</time>
      </trkpt>
      <trkpt lat="47.21367" lon="5.45846">
        <ele>203</ele>
        <time>2021-07-05T08:34:19Z</time>
      </trkpt>
      <trkpt lat="47.21356" lon="5.45839">
        <ele>202</ele>
        <time>2021-07-05T08:34:27Z</time>
      </trkpt>
      <trkpt lat="47.21344" lon="5.45834">
        <ele>201</ele>
        <time>2021-07-05T08:34:37Z</time>
      </trkpt>
      <trkpt lat="47.21317" lon="5.45821">
        <ele>199</ele>
        <time>2021-07-05T08:34:59Z</time>
      </trkpt>
      <trkpt lat="47.21307" lon="5.45813">
        <ele>199</ele>
        <time>2021-07-05T08:35:08Z</time>
      </trkpt>
      <trkpt lat="47.21289" lon="5.45801">
        <ele>198</ele>
        <time>2021-07-05T08:35:21Z</time>
      </trkpt>
      <trkpt lat="47.21271" lon="5.45796">
        <ele>197</ele>
        <time>2021-07-05T08:35:33Z</time>
      </trkpt>
      <trkpt lat="47.21266" lon="5.45791">
        <ele>197</ele>
        <time>2021-07-05T08:35:38Z</time>
      </trkpt>
      <trkpt lat="47.21228" lon="5.45766">
        <ele>196</ele>
        <time>2021-07-05T08:36:10Z</time>
      </trkpt>
      <trkpt lat="47.21208" lon="5.45745">
        <ele>195</ele>
        <time>2021-07-05T08:36:28Z</time>
      </trkpt>
      <trkpt lat="47.21196" lon="5.45741">
        <ele>195</ele>
        <time>2021-07-05T08:36:37Z</time>
      </trkpt>
      <trkpt lat="47.21171" lon="5.4574">
        <ele>194</ele>
        <time>2021-07-05T08:36:57Z</time>
      </trkpt>
      <trkpt lat="47.2116" lon="5.45747">
        <ele>193</ele>
        <time>2021-07-05T08:37:06Z</time>
      </trkpt>
      <trkpt lat="47.21155" lon="5.45752">
        <ele>193</ele>
        <time>2021-07-05T08:37:11Z</time>
      </trkpt>
      <trkpt lat="47.21152" lon="5.45759">
        <ele>193</ele>
        <time>2021-07-05T08:37:15Z</time>
      </trkpt>
      <trkpt lat="47.21131" lon="5.45777">
        <ele>193</ele>
        <time>2021-07-05T08:37:35Z</time>
      </trkpt>
      <trkpt lat="47.21097" lon="5.45813">
        <ele>193</ele>
        <time>2021-07-05T08:38:11Z</time>
      </trkpt>
      <trkpt lat="47.21092" lon="5.45818">
        <ele>193</ele>
        <time>2021-07-05T08:38:16Z</time>
      </trkpt>
      <trkpt lat="47.21084" lon="5.45831">
        <ele>193</ele>
        <time>2021-07-05T08:38:30Z</time>
      </trkpt>
      <trkpt lat="47.21081" lon="5.45836">
        <ele>194</ele>
        <time>2021-07-05T08:39:09Z</time>
      </trkpt>
      <trkpt lat="47.21076" lon="5.45843">
        <ele>194</ele>
        <time>2021-07-05T08:40:12Z</time>
      </trkpt>
      <trkpt lat="47.21071" lon="5.45846">
        <ele>194</ele>
        <time>2021-07-05T08:40:16Z</time>
      </trkpt>
      <trkpt lat="47.21065" lon="5.45852">
        <ele>194</ele>
        <time>2021-07-05T08:40:20Z</time>
      </trkpt>
      <trkpt lat="47.21061" lon="5.45857">
        <ele>194</ele>
        <time>2021-07-05T08:40:25Z</time>
      </trkpt>
      <trkpt lat="47.21055" lon="5.4586">
        <ele>194</ele>
        <time>2021-07-05T08:40:31Z</time>
      </trkpt>
      <trkpt lat="47.21047" lon="5.45869">
        <ele>193</ele>
        <time>2021-07-05T08:40:40Z</time>
      </trkpt>
      <trkpt lat="47.2104" lon="5.45879">
        <ele>195</ele>
        <time>2021-07-05T08:40:48Z</time>
      </trkpt>
      <trkpt lat="47.21035" lon="5.45884">
        <ele>195</ele>
        <time>2021-07-05T08:40:52Z</time>
      </trkpt>
      <trkpt lat="47.2103" lon="5.45888">
        <ele>195</ele>
        <time>2021-07-05T08:40:56Z</time>
      </trkpt>
      <trkpt lat="47.21026" lon="5.45894">
        <ele>195</ele>
        <time>2021-07-05T08:41:00Z</time>
      </trkpt>
      <trkpt lat="47.21022" lon="5.45902">
        <ele>196</ele>
        <time>2021-07-05T08:41:05Z</time>
      </trkpt>
      <trkpt lat="47.21013" lon="5.45914">
        <ele>197</ele>
        <time>2021-07-05T08:41:15Z</time>
      </trkpt>
      <trkpt lat="47.20996" lon="5.45925">
        <ele>197</ele>
        <time>2021-07-05T08:41:28Z</time>
      </trkpt>
      <trkpt lat="47.20986" lon="5.45937">
        <ele>198</ele>
        <time>2021-07-05T08:41:38Z</time>
      </trkpt>
      <trkpt lat="47.20981" lon="5.45941">
        <ele>199</ele>
        <time>2021-07-05T08:41:42Z</time>
      </trkpt>
      <trkpt lat="47.20958" lon="5.45979">
        <ele>200</ele>
        <time>2021-07-05T08:42:11Z</time>
      </trkpt>
      <trkpt lat="47.2094" lon="5.46035">
        <ele>201</ele>
        <time>2021-07-05T08:42:45Z</time>
      </trkpt>
      <trkpt lat="47.20923" lon="5.46084">
        <ele>202</ele>
        <time>2021-07-05T08:43:09Z</time>
      </trkpt>
      <trkpt lat="47.20914" lon="5.4612">
        <ele>203</ele>
        <time>2021-07-05T08:43:32Z</time>
      </trkpt>
      <trkpt lat="47.20897" lon="5.46177">
        <ele>205</ele>
        <time>2021-07-05T08:44:06Z</time>
      </trkpt>
      <trkpt lat="47.20886" lon="5.46209">
        <ele>206</ele>
        <time>2021-07-05T08:44:25Z</time>
      </trkpt>
      <trkpt lat="47.20879" lon="5.46234">
        <ele>205</ele>
        <time>2021-07-05T08:44:38Z</time>
      </trkpt>
      <trkpt lat="47.20876" lon="5.46241">
        <ele>205</ele>
        <time>2021-07-05T08:44:42Z</time>
      </trkpt>
      <trkpt lat="47.2086" lon="5.46289">
        <ele>203</ele>
        <time>2021-07-05T08:45:09Z</time>
      </trkpt>
      <trkpt lat="47.20841" lon="5.46324">
        <ele>203</ele>
        <time>2021-07-05T08:45:31Z</time>
      </trkpt>
      <trkpt lat="47.20832" lon="5.46334">
        <ele>202</ele>
        <time>2021-07-05T08:45:39Z</time>
      </trkpt>
      <trkpt lat="47.20828" lon="5.4634">
        <ele>203</ele>
        <time>2021-07-05T08:45:43Z</time>
      </trkpt>
      <trkpt lat="47.20822" lon="5.46344">
        <ele>203</ele>
        <time>2021-07-05T08:45:48Z</time>
      </trkpt>
      <trkpt lat="47.20813" lon="5.46357">
        <ele>203</ele>
        <time>2021-07-05T08:45:58Z</time>
      </trkpt>
      <trkpt lat="47.20803" lon="5.46367">
        <ele>203</ele>
        <time>2021-07-05T08:46:06Z</time>
      </trkpt>
      <trkpt lat="47.20781" lon="5.46396">
        <ele>206</ele>
        <time>2021-07-05T08:46:29Z</time>
      </trkpt>
      <trkpt lat="47.20775" lon="5.46401">
        <ele>206</ele>
        <time>2021-07-05T08:46:35Z</time>
      </trkpt>
      <trkpt lat="47.20766" lon="5.46414">
        <ele>207</ele>
        <time>2021-07-05T08:46:44Z</time>
      </trkpt>
      <trkpt lat="47.20761" lon="5.46418">
        <ele>207</ele>
        <time>2021-07-05T08:46:49Z</time>
      </trkpt>
      <trkpt lat="47.20737" lon="5.46445">
        <ele>209</ele>
        <time>2021-07-05T08:47:11Z</time>
      </trkpt>
      <trkpt lat="47.20723" lon="5.46463">
        <ele>209</ele>
        <time>2021-07-05T08:47:26Z</time>
      </trkpt>
      <trkpt lat="47.20721" lon="5.46471">
        <ele>209</ele>
        <time>2021-07-05T08:47:30Z</time>
      </trkpt>
      <trkpt lat="47.20715" lon="5.46475">
        <ele>209</ele>
        <time>2021-07-05T08:47:35Z</time>
      </trkpt>
      <trkpt lat="47.20698" lon="5.46498">
        <ele>209</ele>
        <time>2021-07-05T08:47:51Z</time>
      </trkpt>
      <trkpt lat="47.20691" lon="5.46513">
        <ele>209</ele>
        <time>2021-07-05T08:48:03Z</time>
      </trkpt>
      <trkpt lat="47.20657" lon="5.46542">
        <ele>209</ele>
        <time>2021-07-05T08:48:34Z</time>
      </trkpt>
      <trkpt lat="47.20651" lon="5.46548">
        <ele>209</ele>
        <time>2021-07-05T08:48:40Z</time>
      </trkpt>
      <trkpt lat="47.2063" lon="5.4656">
        <ele>208</ele>
        <time>2021-07-05T08:48:59Z</time>
      </trkpt>
      <trkpt lat="47.20622" lon="5.46569">
        <ele>208</ele>
        <time>2021-07-05T08:49:08Z</time>
      </trkpt>
      <trkpt lat="47.20599" lon="5.46576">
        <ele>207</ele>
        <time>2021-07-05T08:49:24Z</time>
      </trkpt>
      <trkpt lat="47.20591" lon="5.46595">
        <ele>206</ele>
        <time>2021-07-05T08:49:37Z</time>
      </trkpt>
      <trkpt lat="47.2059" lon="5.46607">
        <ele>206</ele>
        <time>2021-07-05T08:49:43Z</time>
      </trkpt>
      <trkpt lat="47.20594" lon="5.46615">
        <ele>205</ele>
        <time>2021-07-05T08:50:00Z</time>
      </trkpt>
      <trkpt lat="47.206" lon="5.46652">
        <ele>205</ele>
        <time>2021-07-05T08:50:33Z</time>
      </trkpt>
      <trkpt lat="47.20607" lon="5.46675">
        <ele>206</ele>
        <time>2021-07-05T08:50:48Z</time>
      </trkpt>
      <trkpt lat="47.20609" lon="5.46686">
        <ele>207</ele>
        <time>2021-07-05T08:50:54Z</time>
      </trkpt>
      <trkpt lat="47.20621" lon="5.46737">
        <ele>208</ele>
        <time>2021-07-05T08:51:24Z</time>
      </trkpt>
      <trkpt lat="47.20623" lon="5.46747">
        <ele>208</ele>
        <time>2021-07-05T08:51:30Z</time>
      </trkpt>
      <trkpt lat="47.20623" lon="5.46757">
        <ele>208</ele>
        <time>2021-07-05T08:51:36Z</time>
      </trkpt>
      <trkpt lat="47.20633" lon="5.46792">
        <ele>208</ele>
        <time>2021-07-05T08:53:01Z</time>
      </trkpt>
      <trkpt lat="47.20636" lon="5.46821">
        <ele>209</ele>
        <time>2021-07-05T08:53:32Z</time>
      </trkpt>
      <trkpt lat="47.20646" lon="5.46862">
        <ele>209</ele>
        <time>2021-07-05T08:53:55Z</time>
      </trkpt>
      <trkpt lat="47.20653" lon="5.46881">
        <ele>209</ele>
        <time>2021-07-05T08:54:08Z</time>
      </trkpt>
      <trkpt lat="47.20664" lon="5.46941">
        <ele>210</ele>
        <time>2021-07-05T08:54:46Z</time>
      </trkpt>
      <trkpt lat="47.20672" lon="5.46962">
        <ele>210</ele>
        <time>2021-07-05T08:54:58Z</time>
      </trkpt>
      <trkpt lat="47.20672" lon="5.46971">
        <ele>211</ele>
        <time>2021-07-05T08:55:03Z</time>
      </trkpt>
      <trkpt lat="47.20678" lon="5.46996">
        <ele>211</ele>
        <time>2021-07-05T08:55:16Z</time>
      </trkpt>
      <trkpt lat="47.20681" lon="5.47003">
        <ele>211</ele>
        <time>2021-07-05T08:55:21Z</time>
      </trkpt>
      <trkpt lat="47.20685" lon="5.47019">
        <ele>211</ele>
        <time>2021-07-05T08:55:30Z</time>
      </trkpt>
      <trkpt lat="47.20694" lon="5.47069">
        <ele>211</ele>
        <time>2021-07-05T08:55:57Z</time>
      </trkpt>
      <trkpt lat="47.20702" lon="5.47096">
        <ele>210</ele>
        <time>2021-07-05T08:56:11Z</time>
      </trkpt>
      <trkpt lat="47.20713" lon="5.47147">
        <ele>206</ele>
        <time>2021-07-05T08:56:42Z</time>
      </trkpt>
      <trkpt lat="47.20717" lon="5.47169">
        <ele>205</ele>
        <time>2021-07-05T08:56:53Z</time>
      </trkpt>
      <trkpt lat="47.20716" lon="5.47181">
        <ele>205</ele>
        <time>2021-07-05T08:56:59Z</time>
      </trkpt>
      <trkpt lat="47.20715" lon="5.47191">
        <ele>206</ele>
        <time>2021-07-05T08:57:19Z</time>
      </trkpt>
      <trkpt lat="47.20717" lon="5.47203">
        <ele>207</ele>
        <time>2021-07-05T08:57:27Z</time>
      </trkpt>
      <trkpt lat="47.20721" lon="5.47237">
        <ele>208</ele>
        <time>2021-07-05T08:57:39Z</time>
      </trkpt>
      <trkpt lat="47.20725" lon="5.47245">
        <ele>208</ele>
        <time>2021-07-05T08:57:42Z</time>
      </trkpt>
      <trkpt lat="47.20738" lon="5.47275">
        <ele>209</ele>
        <time>2021-07-05T08:58:03Z</time>
      </trkpt>
      <trkpt lat="47.2074" lon="5.47309">
        <ele>209</ele>
        <time>2021-07-05T08:58:18Z</time>
      </trkpt>
      <trkpt lat="47.2074" lon="5.47319">
        <ele>209</ele>
        <time>2021-07-05T08:58:23Z</time>
      </trkpt>
      <trkpt lat="47.20741" lon="5.4733">
        <ele>209</ele>
        <time>2021-07-05T08:58:28Z</time>
      </trkpt>
      <trkpt lat="47.20745" lon="5.47341">
        <ele>209</ele>
        <time>2021-07-05T08:58:35Z</time>
      </trkpt>
      <trkpt lat="47.20745" lon="5.47352">
        <ele>210</ele>
        <time>2021-07-05T08:58:41Z</time>
      </trkpt>
      <trkpt lat="47.20748" lon="5.47363">
        <ele>210</ele>
        <time>2021-07-05T08:58:49Z</time>
      </trkpt>
      <trkpt lat="47.2076" lon="5.47411">
        <ele>211</ele>
        <time>2021-07-05T08:59:14Z</time>
      </trkpt>
      <trkpt lat="47.20774" lon="5.47447">
        <ele>211</ele>
        <time>2021-07-05T08:59:30Z</time>
      </trkpt>
      <trkpt lat="47.20778" lon="5.47469">
        <ele>211</ele>
        <time>2021-07-05T08:59:42Z</time>
      </trkpt>
      <trkpt lat="47.20785" lon="5.47479">
        <ele>211</ele>
        <time>2021-07-05T08:59:47Z</time>
      </trkpt>
      <trkpt lat="47.20791" lon="5.47485">
        <ele>211</ele>
        <time>2021-07-05T08:59:51Z</time>
      </trkpt>
      <trkpt lat="47.20795" lon="5.47496">
        <ele>212</ele>
        <time>2021-07-05T08:59:56Z</time>
      </trkpt>
      <trkpt lat="47.20796" lon="5.47503">
        <ele>211</ele>
        <time>2021-07-05T09:00:00Z</time>
      </trkpt>
      <trkpt lat="47.20797" lon="5.47511">
        <ele>211</ele>
        <time>2021-07-05T09:00:04Z</time>
      </trkpt>
      <trkpt lat="47.20799" lon="5.47518">
        <ele>211</ele>
        <time>2021-07-05T09:00:09Z</time>
      </trkpt>
      <trkpt lat="47.20805" lon="5.47533">
        <ele>212</ele>
        <time>2021-07-05T09:00:17Z</time>
      </trkpt>
      <trkpt lat="47.20818" lon="5.47585">
        <ele>212</ele>
        <time>2021-07-05T09:00:51Z</time>
      </trkpt>
      <trkpt lat="47.20824" lon="5.47649">
        <ele>210</ele>
        <time>2021-07-05T09:01:29Z</time>
      </trkpt>
      <trkpt lat="47.20835" lon="5.47692">
        <ele>210</ele>
        <time>2021-07-05T09:01:50Z</time>
      </trkpt>
      <trkpt lat="47.20835" lon="5.47707">
        <ele>209</ele>
        <time>2021-07-05T09:02:04Z</time>
      </trkpt>
      <trkpt lat="47.20841" lon="5.4773">
        <ele>207</ele>
        <time>2021-07-05T09:02:19Z</time>
      </trkpt>
      <trkpt lat="47.20846" lon="5.47739">
        <ele>205</ele>
        <time>2021-07-05T09:02:27Z</time>
      </trkpt>
      <trkpt lat="47.2085" lon="5.47757">
        <ele>205</ele>
        <time>2021-07-05T09:02:41Z</time>
      </trkpt>
      <trkpt lat="47.20849" lon="5.47771">
        <ele>206</ele>
        <time>2021-07-05T09:02:53Z</time>
      </trkpt>
      <trkpt lat="47.2085" lon="5.47791">
        <ele>208</ele>
        <time>2021-07-05T09:03:04Z</time>
      </trkpt>
      <trkpt lat="47.20851" lon="5.47815">
        <ele>208</ele>
        <time>2021-07-05T09:03:15Z</time>
      </trkpt>
      <trkpt lat="47.20843" lon="5.47836">
        <ele>209</ele>
        <time>2021-07-05T09:03:27Z</time>
      </trkpt>
      <trkpt lat="47.20845" lon="5.47846">
        <ele>210</ele>
        <time>2021-07-05T09:03:32Z</time>
      </trkpt>
      <trkpt lat="47.20852" lon="5.47866">
        <ele>209</ele>
        <time>2021-07-05T09:03:44Z</time>
      </trkpt>
      <trkpt lat="47.20859" lon="5.47876">
        <ele>208</ele>
        <time>2021-07-05T09:03:54Z</time>
      </trkpt>
      <trkpt lat="47.20862" lon="5.47886">
        <ele>208</ele>
        <time>2021-07-05T09:04:14Z</time>
      </trkpt>
      <trkpt lat="47.20871" lon="5.47911">
        <ele>210</ele>
        <time>2021-07-05T09:04:31Z</time>
      </trkpt>
      <trkpt lat="47.20887" lon="5.47951">
        <ele>211</ele>
        <time>2021-07-05T09:04:58Z</time>
      </trkpt>
      <trkpt lat="47.20916" lon="5.47991">
        <ele>213</ele>
        <time>2021-07-05T09:05:30Z</time>
      </trkpt>
      <trkpt lat="47.20942" lon="5.48025">
        <ele>213</ele>
        <time>2021-07-05T09:05:59Z</time>
      </trkpt>
      <trkpt lat="47.20951" lon="5.48042">
        <ele>213</ele>
        <time>2021-07-05T09:06:13Z</time>
      </trkpt>
      <trkpt lat="47.20981" lon="5.48091">
        <ele>213</ele>
        <time>2021-07-05T09:06:57Z</time>
      </trkpt>
      <trkpt lat="47.20989" lon="5.48105">
        <ele>213</ele>
        <time>2021-07-05T09:07:11Z</time>
      </trkpt>
      <trkpt lat="47.21014" lon="5.48134">
        <ele>213</ele>
        <time>2021-07-05T09:07:44Z</time>
      </trkpt>
      <trkpt lat="47.21022" lon="5.48156">
        <ele>212</ele>
        <time>2021-07-05T09:07:57Z</time>
      </trkpt>
      <trkpt lat="47.2105" lon="5.48188">
        <ele>212</ele>
        <time>2021-07-05T09:08:13Z</time>
      </trkpt>
      <trkpt lat="47.21087" lon="5.48223">
        <ele>212</ele>
        <time>2021-07-05T09:08:52Z</time>
      </trkpt>
      <trkpt lat="47.21086" lon="5.48239">
        <ele>212</ele>
        <time>2021-07-05T09:09:23Z</time>
      </trkpt>
      <trkpt lat="47.21079" lon="5.48265">
        <ele>212</ele>
        <time>2021-07-05T09:09:43Z</time>
      </trkpt>
      <trkpt lat="47.21068" lon="5.4828">
        <ele>211</ele>
        <time>2021-07-05T09:09:55Z</time>
      </trkpt>
      <trkpt lat="47.21064" lon="5.48288">
        <ele>211</ele>
        <time>2021-07-05T09:10:01Z</time>
      </trkpt>
      <trkpt lat="47.21057" lon="5.4831">
        <ele>211</ele>
        <time>2021-07-05T09:10:12Z</time>
      </trkpt>
      <trkpt lat="47.21047" lon="5.48328">
        <ele>210</ele>
        <time>2021-07-05T09:10:25Z</time>
      </trkpt>
      <trkpt lat="47.21019" lon="5.4837">
        <ele>208</ele>
        <time>2021-07-05T09:10:55Z</time>
      </trkpt>
      <trkpt lat="47.21011" lon="5.4839">
        <ele>208</ele>
        <time>2021-07-05T09:11:08Z</time>
      </trkpt>
      <trkpt lat="47.21005" lon="5.48398">
        <ele>208</ele>
        <time>2021-07-05T09:11:14Z</time>
      </trkpt>
      <trkpt lat="47.20999" lon="5.48406">
        <ele>209</ele>
        <time>2021-07-05T09:11:20Z</time>
      </trkpt>
      <trkpt lat="47.20996" lon="5.48412">
        <ele>209</ele>
        <time>2021-07-05T09:11:24Z</time>
      </trkpt>
      <trkpt lat="47.20981" lon="5.48441">
        <ele>209</ele>
        <time>2021-07-05T09:11:40Z</time>
      </trkpt>
      <trkpt lat="47.2098" lon="5.48448">
        <ele>209</ele>
        <time>2021-07-05T09:11:45Z</time>
      </trkpt>
      <trkpt lat="47.20963" lon="5.48474">
        <ele>207</ele>
        <time>2021-07-05T09:12:06Z</time>
      </trkpt>
      <trkpt lat="47.20952" lon="5.48488">
        <ele>207</ele>
        <time>2021-07-05T09:12:15Z</time>
      </trkpt>
      <trkpt lat="47.20937" lon="5.4851">
        <ele>209</ele>
        <time>2021-07-05T09:12:30Z</time>
      </trkpt>
      <trkpt lat="47.20929" lon="5.48522">
        <ele>210</ele>
        <time>2021-07-05T09:12:39Z</time>
      </trkpt>
      <trkpt lat="47.20921" lon="5.48534">
        <ele>210</ele>
        <time>2021-07-05T09:12:50Z</time>
      </trkpt>
      <trkpt lat="47.20913" lon="5.48546">
        <ele>209</ele>
        <time>2021-07-05T09:12:58Z</time>
      </trkpt>
      <trkpt lat="47.20913" lon="5.48565">
        <ele>208</ele>
        <time>2021-07-05T09:13:08Z</time>
      </trkpt>
      <trkpt lat="47.20916" lon="5.48573">
        <ele>207</ele>
        <time>2021-07-05T09:13:13Z</time>
      </trkpt>
      <trkpt lat="47.20941" lon="5.4861">
        <ele>205</ele>
        <time>2021-07-05T09:13:43Z</time>
      </trkpt>
      <trkpt lat="47.20959" lon="5.48631">
        <ele>205</ele>
        <time>2021-07-05T09:14:01Z</time>
      </trkpt>
      <trkpt lat="47.2096" lon="5.48642">
        <ele>205</ele>
        <time>2021-07-05T09:14:08Z</time>
      </trkpt>
      <trkpt lat="47.20965" lon="5.48654">
        <ele>205</ele>
        <time>2021-07-05T09:14:15Z</time>
      </trkpt>
      <trkpt lat="47.21004" lon="5.48694">
        <ele>208</ele>
        <time>2021-07-05T09:14:49Z</time>
      </trkpt>
      <trkpt lat="47.21027" lon="5.48738">
        <ele>210</ele>
        <time>2021-07-05T09:15:17Z</time>
      </trkpt>
      <trkpt lat="47.2103" lon="5.48746">
        <ele>210</ele>
        <time>2021-07-05T09:15:22Z</time>
      </trkpt>
      <trkpt lat="47.21048" lon="5.48768">
        <ele>211</ele>
        <time>2021-07-05T09:15:39Z</time>
      </trkpt>
      <trkpt lat="47.21054" lon="5.4879">
        <ele>212</ele>
        <time>2021-07-05T09:15:52Z</time>
      </trkpt>
      <trkpt lat="47.21069" lon="5.48811">
        <ele>211</ele>
        <time>2021-07-05T09:16:20Z</time>
      </trkpt>
      <trkpt lat="47.21079" lon="5.48808">
        <ele>211</ele>
        <time>2021-07-05T09:16:33Z</time>
      </trkpt>
      <trkpt lat="47.21085" lon="5.48798">
        <ele>211</ele>
        <time>2021-07-05T09:16:39Z</time>
      </trkpt>
      <trkpt lat="47.2108" lon="5.48789">
        <ele>210</ele>
        <time>2021-07-05T09:17:12Z</time>
      </trkpt>
      <trkpt lat="47.21075" lon="5.48797">
        <ele>210</ele>
        <time>2021-07-05T09:17:17Z</time>
      </trkpt>
      <trkpt lat="47.21077" lon="5.48805">
        <ele>211</ele>
        <time>2021-07-05T09:17:21Z</time>
      </trkpt>
      <trkpt lat="47.2108" lon="5.48811">
        <ele>211</ele>
        <time>2021-07-05T09:17:26Z</time>
      </trkpt>
      <trkpt lat="47.21083" lon="5.48827">
        <ele>211</ele>
        <time>2021-07-05T09:17:36Z</time>
      </trkpt>
      <trkpt lat="47.21087" lon="5.48837">
        <ele>211</ele>
        <time>2021-07-05T09:17:43Z</time>
      </trkpt>
      <trkpt lat="47.211" lon="5.48852">
        <ele>211</ele>
        <time>2021-07-05T09:17:59Z</time>
      </trkpt>
      <trkpt lat="47.21111" lon="5.48871">
        <ele>211</ele>
        <time>2021-07-05T09:18:16Z</time>
      </trkpt>
      <trkpt lat="47.21124" lon="5.48886">
        <ele>210</ele>
        <time>2021-07-05T09:18:35Z</time>
      </trkpt>
      <trkpt lat="47.21144" lon="5.48924">
        <ele>207</ele>
        <time>2021-07-05T09:19:01Z</time>
      </trkpt>
      <trkpt lat="47.21151" lon="5.48929">
        <ele>207</ele>
        <time>2021-07-05T09:19:05Z</time>
      </trkpt>
      <trkpt lat="47.2117" lon="5.48952">
        <ele>205</ele>
        <time>2021-07-05T09:19:25Z</time>
      </trkpt>
      <trkpt lat="47.21185" lon="5.48966">
        <ele>203</ele>
        <time>2021-07-05T09:19:42Z</time>
      </trkpt>
      <trkpt lat="47.2119" lon="5.48972">
        <ele>202</ele>
        <time>2021-07-05T09:19:47Z</time>
      </trkpt>
      <trkpt lat="47.2125" lon="5.49017">
        <ele>200</ele>
        <time>2021-07-05T09:20:21Z</time>
      </trkpt>
      <trkpt lat="47.21291" lon="5.49045">
        <ele>199</ele>
        <time>2021-07-05T09:20:48Z</time>
      </trkpt>
      <trkpt lat="47.21294" lon="5.49051">
        <ele>199</ele>
        <time>2021-07-05T09:20:52Z</time>
      </trkpt>
      <trkpt lat="47.21319" lon="5.49077">
        <ele>198</ele>
        <time>2021-07-05T09:21:18Z</time>
      </trkpt>
      <trkpt lat="47.21324" lon="5.49086">
        <ele>199</ele>
        <time>2021-07-05T09:21:26Z</time>
      </trkpt>
      <trkpt lat="47.21341" lon="5.49111">
        <ele>199</ele>
        <time>2021-07-05T09:21:44Z</time>
      </trkpt>
      <trkpt lat="47.21343" lon="5.4912">
        <ele>199</ele>
        <time>2021-07-05T09:21:49Z</time>
      </trkpt>
      <trkpt lat="47.21353" lon="5.49144">
        <ele>199</ele>
        <time>2021-07-05T09:22:01Z</time>
      </trkpt>
      <trkpt lat="47.21354" lon="5.49153">
        <ele>199</ele>
        <time>2021-07-05T09:22:05Z</time>
      </trkpt>
      <trkpt lat="47.21374" lon="5.49204">
        <ele>200</ele>
        <time>2021-07-05T09:22:37Z</time>
      </trkpt>
      <trkpt lat="47.21378" lon="5.49229">
        <ele>202</ele>
        <time>2021-07-05T09:22:50Z</time>
      </trkpt>
      <trkpt lat="47.2138" lon="5.49235">
        <ele>202</ele>
        <time>2021-07-05T09:22:53Z</time>
      </trkpt>
      <trkpt lat="47.2138" lon="5.49248">
        <ele>203</ele>
        <time>2021-07-05T09:22:59Z</time>
      </trkpt>
      <trkpt lat="47.21381" lon="5.49255">
        <ele>204</ele>
        <time>2021-07-05T09:23:03Z</time>
      </trkpt>
      <trkpt lat="47.21384" lon="5.49282">
        <ele>205</ele>
        <time>2021-07-05T09:23:16Z</time>
      </trkpt>
      <trkpt lat="47.21383" lon="5.49301">
        <ele>206</ele>
        <time>2021-07-05T09:23:29Z</time>
      </trkpt>
      <trkpt lat="47.21386" lon="5.49361">
        <ele>209</ele>
        <time>2021-07-05T09:24:02Z</time>
      </trkpt>
      <trkpt lat="47.21387" lon="5.4938">
        <ele>209</ele>
        <time>2021-07-05T09:24:12Z</time>
      </trkpt>
      <trkpt lat="47.21391" lon="5.49389">
        <ele>209</ele>
        <time>2021-07-05T09:24:16Z</time>
      </trkpt>
      <trkpt lat="47.21391" lon="5.49397">
        <ele>209</ele>
        <time>2021-07-05T09:24:20Z</time>
      </trkpt>
      <trkpt lat="47.21395" lon="5.49405">
        <ele>209</ele>
        <time>2021-07-05T09:24:25Z</time>
      </trkpt>
      <trkpt lat="47.21403" lon="5.4943">
        <ele>210</ele>
        <time>2021-07-05T09:24:38Z</time>
      </trkpt>
      <trkpt lat="47.21405" lon="5.49448">
        <ele>210</ele>
        <time>2021-07-05T09:24:49Z</time>
      </trkpt>
      <trkpt lat="47.21407" lon="5.49452">
        <ele>210</ele>
        <time>2021-07-05T09:24:52Z</time>
      </trkpt>
      <trkpt lat="47.21409" lon="5.49466">
        <ele>210</ele>
        <time>2021-07-05T09:24:59Z</time>
      </trkpt>
      <trkpt lat="47.2141" lon="5.49483">
        <ele>210</ele>
        <time>2021-07-05T09:25:10Z</time>
      </trkpt>
      <trkpt lat="47.21413" lon="5.49489">
        <ele>210</ele>
        <time>2021-07-05T09:25:13Z</time>
      </trkpt>
      <trkpt lat="47.21415" lon="5.49501">
        <ele>210</ele>
        <time>2021-07-05T09:25:20Z</time>
      </trkpt>
      <trkpt lat="47.21418" lon="5.49506">
        <ele>210</ele>
        <time>2021-07-05T09:25:23Z</time>
      </trkpt>
      <trkpt lat="47.21419" lon="5.49512">
        <ele>210</ele>
        <time>2021-07-05T09:25:27Z</time>
      </trkpt>
      <trkpt lat="47.21424" lon="5.49529">
        <ele>210</ele>
        <time>2021-07-05T09:25:35Z</time>
      </trkpt>
      <trkpt lat="47.21426" lon="5.49537">
        <ele>210</ele>
        <time>2021-07-05T09:25:40Z</time>
      </trkpt>
      <trkpt lat="47.21429" lon="5.49545">
        <ele>211</ele>
        <time>2021-07-05T09:25:46Z</time>
      </trkpt>
      <trkpt lat="47.21432" lon="5.49553">
        <ele>211</ele>
        <time>2021-07-05T09:25:50Z</time>
      </trkpt>
      <trkpt lat="47.21445" lon="5.4961">
        <ele>211</ele>
        <time>2021-07-05T09:26:23Z</time>
      </trkpt>
      <trkpt lat="47.21447" lon="5.49618">
        <ele>211</ele>
        <time>2021-07-05T09:26:28Z</time>
      </trkpt>
      <trkpt lat="47.21449" lon="5.49626">
        <ele>211</ele>
        <time>2021-07-05T09:26:33Z</time>
      </trkpt>
      <trkpt lat="47.21452" lon="5.49634">
        <ele>211</ele>
        <time>2021-07-05T09:26:38Z</time>
      </trkpt>
      <trkpt lat="47.21453" lon="5.49643">
        <ele>212</ele>
        <time>2021-07-05T09:26:42Z</time>
      </trkpt>
      <trkpt lat="47.2146" lon="5.4966">
        <ele>211</ele>
        <time>2021-07-05T09:26:53Z</time>
      </trkpt>
      <trkpt lat="47.21474" lon="5.49703">
        <ele>212</ele>
        <time>2021-07-05T09:27:19Z</time>
      </trkpt>
      <trkpt lat="47.2148" lon="5.49717">
        <ele>212</ele>
        <time>2021-07-05T09:27:26Z</time>
      </trkpt>
      <trkpt lat="47.21482" lon="5.49726">
        <ele>212</ele>
        <time>2021-07-05T09:27:30Z</time>
      </trkpt>
      <trkpt lat="47.21484" lon="5.49734">
        <ele>213</ele>
        <time>2021-07-05T09:27:35Z</time>
      </trkpt>
      <trkpt lat="47.215" lon="5.49792">
        <ele>212</ele>
        <time>2021-07-05T09:28:08Z</time>
      </trkpt>
      <trkpt lat="47.21505" lon="5.49808">
        <ele>212</ele>
        <time>2021-07-05T09:28:17Z</time>
      </trkpt>
      <trkpt lat="47.21507" lon="5.49816">
        <ele>212</ele>
        <time>2021-07-05T09:28:22Z</time>
      </trkpt>
      <trkpt lat="47.21509" lon="5.49825">
        <ele>212</ele>
        <time>2021-07-05T09:28:27Z</time>
      </trkpt>
      <trkpt lat="47.21511" lon="5.49833">
        <ele>212</ele>
        <time>2021-07-05T09:28:32Z</time>
      </trkpt>
      <trkpt lat="47.21531" lon="5.49891">
        <ele>212</ele>
        <time>2021-07-05T09:29:06Z</time>
      </trkpt>
      <trkpt lat="47.21534" lon="5.49899">
        <ele>212</ele>
        <time>2021-07-05T09:29:10Z</time>
      </trkpt>
      <trkpt lat="47.21541" lon="5.49902">
        <ele>212</ele>
        <time>2021-07-05T09:29:18Z</time>
      </trkpt>
      <trkpt lat="47.2155" lon="5.49958">
        <ele>210</ele>
        <time>2021-07-05T09:29:42Z</time>
      </trkpt>
      <trkpt lat="47.21559" lon="5.49979">
        <ele>210</ele>
        <time>2021-07-05T09:29:57Z</time>
      </trkpt>
      <trkpt lat="47.21565" lon="5.49979">
        <ele>210</ele>
        <time>2021-07-05T09:30:01Z</time>
      </trkpt>
      <trkpt lat="47.21568" lon="5.49986">
        <ele>209</ele>
        <time>2021-07-05T09:30:05Z</time>
      </trkpt>
      <trkpt lat="47.21571" lon="5.49994">
        <ele>209</ele>
        <time>2021-07-05T09:30:09Z</time>
      </trkpt>
      <trkpt lat="47.21577" lon="5.50001">
        <ele>209</ele>
        <time>2021-07-05T09:30:17Z</time>
      </trkpt>
      <trkpt lat="47.216" lon="5.50064">
        <ele>209</ele>
        <time>2021-07-05T09:30:49Z</time>
      </trkpt>
      <trkpt lat="47.21602" lon="5.50072">
        <ele>209</ele>
        <time>2021-07-05T09:30:53Z</time>
      </trkpt>
      <trkpt lat="47.21621" lon="5.50104">
        <ele>210</ele>
        <time>2021-07-05T09:31:16Z</time>
      </trkpt>
      <trkpt lat="47.21626" lon="5.50109">
        <ele>210</ele>
        <time>2021-07-05T09:31:20Z</time>
      </trkpt>
      <trkpt lat="47.21639" lon="5.50128">
        <ele>210</ele>
        <time>2021-07-05T09:31:35Z</time>
      </trkpt>
      <trkpt lat="47.21641" lon="5.50137">
        <ele>210</ele>
        <time>2021-07-05T09:31:39Z</time>
      </trkpt>
      <trkpt lat="47.21644" lon="5.50155">
        <ele>210</ele>
        <time>2021-07-05T09:31:48Z</time>
      </trkpt>
      <trkpt lat="47.21647" lon="5.50163">
        <ele>210</ele>
        <time>2021-07-05T09:31:52Z</time>
      </trkpt>
      <trkpt lat="47.2165" lon="5.50179">
        <ele>210</ele>
        <time>2021-07-05T09:32:01Z</time>
      </trkpt>
      <trkpt lat="47.21653" lon="5.50196">
        <ele>210</ele>
        <time>2021-07-05T09:32:10Z</time>
      </trkpt>
      <trkpt lat="47.21653" lon="5.50205">
        <ele>210</ele>
        <time>2021-07-05T09:32:15Z</time>
      </trkpt>
      <trkpt lat="47.2166" lon="5.50229">
        <ele>210</ele>
        <time>2021-07-05T09:32:29Z</time>
      </trkpt>
      <trkpt lat="47.21663" lon="5.50246">
        <ele>211</ele>
        <time>2021-07-05T09:32:37Z</time>
      </trkpt>
      <trkpt lat="47.21669" lon="5.50259">
        <ele>212</ele>
        <time>2021-07-05T09:32:48Z</time>
      </trkpt>
      <trkpt lat="47.21688" lon="5.50264">
        <ele>212</ele>
        <time>2021-07-05T09:33:02Z</time>
      </trkpt>
      <trkpt lat="47.21705" lon="5.50261">
        <ele>213</ele>
        <time>2021-07-05T09:33:17Z</time>
      </trkpt>
      <trkpt lat="47.21712" lon="5.5026">
        <ele>212</ele>
        <time>2021-07-05T09:33:22Z</time>
      </trkpt>
      <trkpt lat="47.21718" lon="5.50259">
        <ele>212</ele>
        <time>2021-07-05T09:33:26Z</time>
      </trkpt>
      <trkpt lat="47.21768" lon="5.50257">
        <ele>211</ele>
        <time>2021-07-05T09:33:58Z</time>
      </trkpt>
      <trkpt lat="47.21812" lon="5.50255">
        <ele>209</ele>
        <time>2021-07-05T09:34:33Z</time>
      </trkpt>
      <trkpt lat="47.2184" lon="5.50257">
        <ele>207</ele>
        <time>2021-07-05T09:34:54Z</time>
      </trkpt>
      <trkpt lat="47.21846" lon="5.50254">
        <ele>207</ele>
        <time>2021-07-05T09:35:00Z</time>
      </trkpt>
      <trkpt lat="47.21851" lon="5.50255">
        <ele>207</ele>
        <time>2021-07-05T09:35:04Z</time>
      </trkpt>
      <trkpt lat="47.21856" lon="5.50257">
        <ele>206</ele>
        <time>2021-07-05T09:35:07Z</time>
      </trkpt>
      <trkpt lat="47.21897" lon="5.50256">
        <ele>204</ele>
        <time>2021-07-05T09:35:36Z</time>
      </trkpt>
      <trkpt lat="47.21905" lon="5.50254">
        <ele>204</ele>
        <time>2021-07-05T09:35:45Z</time>
      </trkpt>
      <trkpt lat="47.21917" lon="5.50256">
        <ele>203</ele>
        <time>2021-07-05T09:35:54Z</time>
      </trkpt>
      <trkpt lat="47.21928" lon="5.50254">
        <ele>203</ele>
        <time>2021-07-05T09:36:03Z</time>
      </trkpt>
      <trkpt lat="47.21939" lon="5.50243">
        <ele>203</ele>
        <time>2021-07-05T09:36:13Z</time>
      </trkpt>
      <trkpt lat="47.21944" lon="5.50237">
        <ele>202</ele>
        <time>2021-07-05T09:36:17Z</time>
      </trkpt>
      <trkpt lat="47.21949" lon="5.50233">
        <ele>202</ele>
        <time>2021-07-05T09:36:21Z</time>
      </trkpt>
      <trkpt lat="47.21988" lon="5.50208">
        <ele>202</ele>
        <time>2021-07-05T09:36:52Z</time>
      </trkpt>
      <trkpt lat="47.21994" lon="5.50205">
        <ele>201</ele>
        <time>2021-07-05T09:36:56Z</time>
      </trkpt>
      <trkpt lat="47.22038" lon="5.50191">
        <ele>201</ele>
        <time>2021-07-05T09:37:28Z</time>
      </trkpt>
      <trkpt lat="47.22063" lon="5.50191">
        <ele>201</ele>
        <time>2021-07-05T09:37:45Z</time>
      </trkpt>
      <trkpt lat="47.22075" lon="5.50194">
        <ele>200</ele>
        <time>2021-07-05T09:37:53Z</time>
      </trkpt>
      <trkpt lat="47.2208" lon="5.50198">
        <ele>200</ele>
        <time>2021-07-05T09:37:58Z</time>
      </trkpt>
      <trkpt lat="47.22086" lon="5.50201">
        <ele>200</ele>
        <time>2021-07-05T09:38:02Z</time>
      </trkpt>
      <trkpt lat="47.22109" lon="5.50212">
        <ele>200</ele>
        <time>2021-07-05T09:38:19Z</time>
      </trkpt>
      <trkpt lat="47.2214" lon="5.50238">
        <ele>200</ele>
        <time>2021-07-05T09:38:46Z</time>
      </trkpt>
      <trkpt lat="47.22152" lon="5.50244">
        <ele>200</ele>
        <time>2021-07-05T09:38:54Z</time>
      </trkpt>
      <trkpt lat="47.22157" lon="5.50248">
        <ele>200</ele>
        <time>2021-07-05T09:38:58Z</time>
      </trkpt>
      <trkpt lat="47.22168" lon="5.50255">
        <ele>200</ele>
        <time>2021-07-05T09:39:08Z</time>
      </trkpt>
      <trkpt lat="47.22182" lon="5.50257">
        <ele>200</ele>
        <time>2021-07-05T09:39:20Z</time>
      </trkpt>
      <trkpt lat="47.22193" lon="5.50262">
        <ele>200</ele>
        <time>2021-07-05T09:39:29Z</time>
      </trkpt>
      <trkpt lat="47.22236" lon="5.50245">
        <ele>201</ele>
        <time>2021-07-05T09:40:04Z</time>
      </trkpt>
      <trkpt lat="47.22272" lon="5.50223">
        <ele>202</ele>
        <time>2021-07-05T09:40:34Z</time>
      </trkpt>
      <trkpt lat="47.22289" lon="5.50213">
        <ele>202</ele>
        <time>2021-07-05T09:40:46Z</time>
      </trkpt>
      <trkpt lat="47.22315" lon="5.50207">
        <ele>203</ele>
        <time>2021-07-05T09:41:06Z</time>
      </trkpt>
      <trkpt lat="47.22353" lon="5.50187">
        <ele>206</ele>
        <time>2021-07-05T09:41:37Z</time>
      </trkpt>
      <trkpt lat="47.22391" lon="5.50148">
        <ele>208</ele>
        <time>2021-07-05T09:42:18Z</time>
      </trkpt>
      <trkpt lat="47.22395" lon="5.50141">
        <ele>208</ele>
        <time>2021-07-05T09:42:23Z</time>
      </trkpt>
      <trkpt lat="47.22404" lon="5.5013">
        <ele>209</ele>
        <time>2021-07-05T09:42:32Z</time>
      </trkpt>
      <trkpt lat="47.22412" lon="5.50117">
        <ele>210</ele>
        <time>2021-07-05T09:42:40Z</time>
      </trkpt>
      <trkpt lat="47.22419" lon="5.50109">
        <ele>210</ele>
        <time>2021-07-05T09:42:50Z</time>
      </trkpt>
      <trkpt lat="47.22422" lon="5.50101">
        <ele>210</ele>
        <time>2021-07-05T09:42:55Z</time>
      </trkpt>
      <trkpt lat="47.22434" lon="5.50092">
        <ele>211</ele>
        <time>2021-07-05T09:43:05Z</time>
      </trkpt>
      <trkpt lat="47.22438" lon="5.50086">
        <ele>211</ele>
        <time>2021-07-05T09:43:11Z</time>
      </trkpt>
      <trkpt lat="47.22453" lon="5.50075">
        <ele>212</ele>
        <time>2021-07-05T09:43:27Z</time>
      </trkpt>
      <trkpt lat="47.2246" lon="5.50062">
        <ele>213</ele>
        <time>2021-07-05T09:43:35Z</time>
      </trkpt>
      <trkpt lat="47.22472" lon="5.5005">
        <ele>214</ele>
        <time>2021-07-05T09:43:51Z</time>
      </trkpt>
      <trkpt lat="47.22475" lon="5.50042">
        <ele>214</ele>
        <time>2021-07-05T09:43:56Z</time>
      </trkpt>
      <trkpt lat="47.22477" lon="5.50034">
        <ele>214</ele>
        <time>2021-07-05T09:44:01Z</time>
      </trkpt>
      <trkpt lat="47.2248" lon="5.50024">
        <ele>215</ele>
        <time>2021-07-05T09:44:09Z</time>
      </trkpt>
      <trkpt lat="47.22486" lon="5.50025">
        <ele>215</ele>
        <time>2021-07-05T09:45:02Z</time>
      </trkpt>
    </trkseg>
  </trk>
</gpx>